createdAt,value
2022-12-09T00:01:42.542Z,5.79
2022-12-09T00:04:10.711Z,5.85
2022-12-09T00:06:38.848Z,5.79
2022-12-09T00:09:06.984Z,5.63
2022-12-09T00:11:34.954Z,5.55
2022-12-09T00:14:02.867Z,5.47
2022-12-09T00:16:31.109Z,5.49
2022-12-09T00:19:00.584Z,5.65
2022-12-09T00:21:30.609Z,5.55
2022-12-09T00:24:00.237Z,5.68
2022-12-09T00:26:29.452Z,5.85
2022-12-09T00:28:58.240Z,5.78
2022-12-09T00:31:28.349Z,5.79
2022-12-09T00:33:58.879Z,5.77
2022-12-09T00:36:29.330Z,5.82
2022-12-09T00:38:59.419Z,5.63
2022-12-09T00:41:27.944Z,5.68
2022-12-09T00:43:56.245Z,5.71
2022-12-09T00:46:24.238Z,5.92
2022-12-09T00:48:52.111Z,5.64
2022-12-09T00:51:22.553Z,6.02
2022-12-09T00:53:54.941Z,5.75
2022-12-09T00:56:23.359Z,5.79
2022-12-09T00:58:51.536Z,5.63
2022-12-09T01:01:19.711Z,5.91
2022-12-09T01:03:48.067Z,5.45
2022-12-09T01:06:19.676Z,5.66
2022-12-09T01:08:47.702Z,5.79
2022-12-09T01:11:19.909Z,6.04
2022-12-09T01:13:48.871Z,6.02
2022-12-09T01:16:18.433Z,5.98
2022-12-09T01:18:46.925Z,5.58
2022-12-09T01:21:15.763Z,6.03
2022-12-09T01:23:43.832Z,5.98
2022-12-09T01:26:12.043Z,5.93
2022-12-09T01:28:41.515Z,5.48
2022-12-09T01:31:11.229Z,6.01
2022-12-09T01:33:39.970Z,6.02
2022-12-09T01:36:12.933Z,5.93
2022-12-09T01:38:41.246Z,5.78
2022-12-09T01:41:10.062Z,5.85
2022-12-09T01:43:39.382Z,5.85
2022-12-09T01:46:09.220Z,5.77
2022-12-09T01:48:40.624Z,5.83
2022-12-09T01:51:13.714Z,5.85
2022-12-09T01:53:45.293Z,4.62
2022-12-09T01:56:18.698Z,5.82
2022-12-09T01:58:47.374Z,5.81
2022-12-09T02:01:18.185Z,5.42
2022-12-09T02:03:46.714Z,5.82
2022-12-09T02:06:16.196Z,5.64
2022-12-09T02:08:44.967Z,5.73
2022-12-09T02:11:18.532Z,5.82
2022-12-09T02:13:56.032Z,5.57
2022-12-09T02:16:30.646Z,5.48
2022-12-09T02:19:06.493Z,5.55
2022-12-09T02:21:38.858Z,5.56
2022-12-09T02:24:14.666Z,5.52
2022-12-09T02:26:46.833Z,5.48
2022-12-09T02:29:37.878Z,5.65
2022-12-09T02:32:30.889Z,5.64
2022-12-09T02:35:06.570Z,5.39
2022-12-09T02:37:41.626Z,5.78
2022-12-09T02:40:16.039Z,5.91
2022-12-09T02:42:47.024Z,5.93
2022-12-09T02:45:16.375Z,5.83
2022-12-09T02:47:49.708Z,5.75
2022-12-09T02:50:22.256Z,5.53
2022-12-09T02:52:52.745Z,5.72
2022-12-09T02:55:23.697Z,5.71
2022-12-09T02:57:56.221Z,5.60
2022-12-09T03:00:24.431Z,5.58
2022-12-09T03:02:56.339Z,5.46
2022-12-09T03:05:32.988Z,5.40
2022-12-09T03:08:12.087Z,5.69
2022-12-09T03:10:45.685Z,5.67
2022-12-09T03:13:19.543Z,5.23
2022-12-09T03:15:52.174Z,5.85
2022-12-09T03:18:22.350Z,5.58
2022-12-09T03:20:51.973Z,5.80
2022-12-09T03:23:23.247Z,5.94
2022-12-09T03:25:54.466Z,5.64
2022-12-09T03:28:25.559Z,6.11
2022-12-09T03:30:54.693Z,6.16
2022-12-09T03:33:25.609Z,6.14
2022-12-09T03:35:59.201Z,6.14
2022-12-09T03:38:32.126Z,5.98
2022-12-09T03:41:07.316Z,5.86
2022-12-09T03:43:39.420Z,5.87
2022-12-09T03:46:07.340Z,6.02
2022-12-09T03:48:35.830Z,5.96
2022-12-09T03:51:11.194Z,5.78
2022-12-09T03:53:44.457Z,5.66
2022-12-09T03:56:19.060Z,5.53
2022-12-09T03:58:49.732Z,5.53
2022-12-09T04:01:18.397Z,5.54
2022-12-09T04:03:49.592Z,4.74
2022-12-09T04:06:19.104Z,5.02
2022-12-09T04:08:47.391Z,5.38
2022-12-09T04:11:15.449Z,5.33
2022-12-09T04:13:43.340Z,5.35
2022-12-09T04:16:11.206Z,5.34
2022-12-09T04:18:39.265Z,5.41
2022-12-09T04:21:09.120Z,5.34
2022-12-09T04:23:43.057Z,5.25
2022-12-09T04:26:15.582Z,5.22
2022-12-09T04:28:43.558Z,5.23
2022-12-09T04:31:12.100Z,5.22
2022-12-09T04:33:40.575Z,5.31
2022-12-09T04:36:11.160Z,4.83
2022-12-09T04:38:40.850Z,4.74
2022-12-09T04:41:09.838Z,4.94
2022-12-09T04:43:38.416Z,5.09
2022-12-09T04:46:08.400Z,5.13
2022-12-09T04:48:38.053Z,5.26
2022-12-09T04:51:06.492Z,5.34
2022-12-09T04:53:34.909Z,5.35
2022-12-09T04:56:06.670Z,5.36
2022-12-09T04:58:35.028Z,5.53
2022-12-09T05:01:07.703Z,5.11
2022-12-09T05:03:36.822Z,5.58
2022-12-09T05:06:06.375Z,5.54
2022-12-09T05:08:34.980Z,5.46
2022-12-09T05:11:05.509Z,5.05
2022-12-09T05:13:34.261Z,5.49
2022-12-09T05:16:02.846Z,5.61
2022-12-09T05:18:31.448Z,5.59
2022-12-09T05:20:59.561Z,5.52
2022-12-09T05:23:27.707Z,5.60
2022-12-09T05:25:56.636Z,5.26
2022-12-09T05:28:26.317Z,5.35
2022-12-09T05:30:54.628Z,5.48
2022-12-09T05:33:22.964Z,5.48
2022-12-09T05:35:53.511Z,5.09
2022-12-09T05:38:23.061Z,5.42
2022-12-09T05:40:51.392Z,5.57
2022-12-09T05:43:19.944Z,5.41
2022-12-09T05:45:49.613Z,5.40
2022-12-09T05:48:18.924Z,5.25
2022-12-09T05:50:57.153Z,5.45
2022-12-09T05:53:25.334Z,5.43
2022-12-09T05:55:54.147Z,5.35
2022-12-09T05:58:22.840Z,5.43
2022-12-09T06:00:52.225Z,5.58
2022-12-09T06:03:20.632Z,5.61
2022-12-09T06:05:48.837Z,5.62
2022-12-09T06:08:17.372Z,4.56
2022-12-09T06:10:45.602Z,5.44
2022-12-09T06:13:13.962Z,5.44
2022-12-09T06:15:42.433Z,5.47
2022-12-09T06:18:12.191Z,5.56
2022-12-09T06:20:41.120Z,5.47
2022-12-09T06:23:09.671Z,5.52
2022-12-09T06:25:38.187Z,5.66
2022-12-09T06:28:06.344Z,5.63
2022-12-09T06:30:34.817Z,5.56
2022-12-09T06:33:04.340Z,5.44
2022-12-09T06:35:40.123Z,5.60
2022-12-09T06:38:08.726Z,5.12
2022-12-09T06:40:41.966Z,5.83
2022-12-09T06:43:10.195Z,5.89
2022-12-09T06:45:38.453Z,5.26
2022-12-09T06:48:07.151Z,5.77
2022-12-09T06:50:35.549Z,5.82
2022-12-09T06:53:05.484Z,5.81
2022-12-09T06:55:33.661Z,5.71
2022-12-09T06:58:01.783Z,5.71
2022-12-09T07:00:30.110Z,5.79
2022-12-09T07:02:58.517Z,5.88
2022-12-09T07:05:27.084Z,5.92
2022-12-09T07:07:55.568Z,5.80
2022-12-09T07:10:25.786Z,5.94
2022-12-09T07:12:53.726Z,5.95
2022-12-09T07:15:21.697Z,6.26
2022-12-09T07:17:49.802Z,6.29
2022-12-09T07:20:19.517Z,6.53
2022-12-09T07:22:47.816Z,6.50
2022-12-09T07:25:16.246Z,6.54
2022-12-09T07:27:45.888Z,6.34
2022-12-09T07:30:14.270Z,6.67
2022-12-09T07:32:42.318Z,6.81
2022-12-09T07:35:11.436Z,6.88
2022-12-09T07:37:39.893Z,6.91
2022-12-09T07:40:09.269Z,7.04
2022-12-09T07:42:37.384Z,6.80
2022-12-09T07:45:07.960Z,7.13
2022-12-09T07:47:36.593Z,7.16
2022-12-09T07:50:07.076Z,7.04
2022-12-09T07:52:35.697Z,6.77
2022-12-09T07:55:04.035Z,7.23
2022-12-09T07:57:32.346Z,7.18
2022-12-09T08:00:00.691Z,7.20
2022-12-09T08:02:30.769Z,7.39
2022-12-09T08:04:59.257Z,7.08
2022-12-09T08:07:27.442Z,7.30
2022-12-09T08:09:56.549Z,7.00
2022-12-09T08:12:25.465Z,7.37
2022-12-09T08:14:53.582Z,7.31
2022-12-09T08:17:22.150Z,7.44
2022-12-09T08:19:52.295Z,7.30
2022-12-09T08:22:20.515Z,7.37
2022-12-09T08:24:48.863Z,7.37
2022-12-09T08:27:17.094Z,7.25
2022-12-09T08:29:48.182Z,7.45
2022-12-09T08:32:18.110Z,7.38
2022-12-09T08:34:47.349Z,7.57
2022-12-09T08:37:20.086Z,7.26
2022-12-09T08:39:48.467Z,7.75
2022-12-09T08:42:16.448Z,7.91
2022-12-09T08:44:44.724Z,7.89
2022-12-09T08:47:13.146Z,8.22
2022-12-09T08:49:41.174Z,8.31
2022-12-09T08:52:09.537Z,8.40
2022-12-09T08:54:38.840Z,8.17
2022-12-09T08:57:07.082Z,8.56
2022-12-09T08:59:37.627Z,8.70
2022-12-09T09:02:10.082Z,8.16
2022-12-09T09:04:38.794Z,8.75
2022-12-09T09:07:07.294Z,8.84
2022-12-09T09:09:35.571Z,8.67
2022-12-09T09:12:05.464Z,8.78
2022-12-09T09:14:33.645Z,9.33
2022-12-09T09:17:01.916Z,8.89
2022-12-09T09:19:30.224Z,9.09
2022-12-09T09:21:58.572Z,9.15
2022-12-09T09:24:27.578Z,9.22
2022-12-09T09:26:56.378Z,9.36
2022-12-09T09:29:26.330Z,9.40
2022-12-09T09:31:55.577Z,9.28
2022-12-09T09:34:24.973Z,9.85
2022-12-09T09:36:53.558Z,10.14
2022-12-09T09:39:22.495Z,9.61
2022-12-09T09:41:53.603Z,10.12
2022-12-09T09:44:28.171Z,10.03
2022-12-09T09:46:59.500Z,9.89
2022-12-09T09:49:37.514Z,9.40
2022-12-09T09:52:09.774Z,9.60
2022-12-09T09:54:38.616Z,9.43
2022-12-09T09:57:14.310Z,9.85
2022-12-09T09:59:55.729Z,9.95
2022-12-09T10:02:39.127Z,9.95
2022-12-09T10:05:15.519Z,9.17
2022-12-09T10:07:45.919Z,9.84
2022-12-09T10:10:24.383Z,9.57
2022-12-09T10:13:11.098Z,9.73
2022-12-09T10:15:53.104Z,9.98
2022-12-09T10:18:29.083Z,10.27
2022-12-09T10:20:57.496Z,10.14
2022-12-09T10:23:31.301Z,10.16
2022-12-09T10:26:04.130Z,10.18
2022-12-09T10:28:35.875Z,10.33
2022-12-09T10:31:05.422Z,9.93
2022-12-09T10:33:37.260Z,10.03
2022-12-09T10:36:06.394Z,10.11
2022-12-09T10:38:41.137Z,9.98
2022-12-09T10:41:38.910Z,10.15
2022-12-09T10:44:19.685Z,10.16
2022-12-09T10:46:50.242Z,10.00
2022-12-09T10:49:21.961Z,10.04
2022-12-09T10:51:52.385Z,9.91
2022-12-09T10:54:29.768Z,10.05
2022-12-09T10:57:25.164Z,9.69
2022-12-09T11:00:07.825Z,9.22
2022-12-09T11:02:37.658Z,10.20
2022-12-09T11:05:24.400Z,10.12
2022-12-09T11:07:54.417Z,10.00
2022-12-09T11:10:25.448Z,10.20
2022-12-09T11:12:55.409Z,10.36
2022-12-09T11:15:28.821Z,10.34
2022-12-09T11:18:01.542Z,10.38
2022-12-09T11:20:31.624Z,10.09
2022-12-09T11:23:06.393Z,10.46
2022-12-09T11:25:36.808Z,10.53
2022-12-09T11:28:06.825Z,10.37
2022-12-09T11:30:38.816Z,10.75
2022-12-09T11:33:27.193Z,11.31
2022-12-09T11:36:04.152Z,11.39
2022-12-09T11:38:39.757Z,11.31
2022-12-09T11:41:34.982Z,11.10
2022-12-09T11:44:03.900Z,10.80
2022-12-09T11:46:33.649Z,10.95
2022-12-09T11:49:13.856Z,11.16
2022-12-09T11:51:44.614Z,11.45
2022-12-09T11:54:16.297Z,11.41
2022-12-09T11:56:44.986Z,11.47
2022-12-09T11:59:15.331Z,11.25
2022-12-09T12:01:49.231Z,11.25
2022-12-09T12:04:32.597Z,11.06
2022-12-09T12:07:05.699Z,11.25
2022-12-09T12:09:41.146Z,11.34
2022-12-09T12:12:18.387Z,11.00
2022-12-09T12:14:47.126Z,11.40
2022-12-09T12:17:22.979Z,11.46
2022-12-09T12:19:53.364Z,11.54
2022-12-09T12:22:55.110Z,11.50
2022-12-09T12:25:41.698Z,11.42
2022-12-09T12:28:26.088Z,11.60
2022-12-09T12:31:03.044Z,11.85
2022-12-09T12:34:15.989Z,11.63
2022-12-09T12:36:50.297Z,11.48
2022-12-09T12:39:31.093Z,11.44
2022-12-09T12:42:09.910Z,11.49
2022-12-09T12:45:05.148Z,11.40
2022-12-09T12:47:44.144Z,11.42
2022-12-09T12:50:39.913Z,11.37
2022-12-09T12:53:18.992Z,11.46
2022-12-09T12:55:57.387Z,11.35
2022-12-09T12:58:40.946Z,11.18
2022-12-09T13:01:15.988Z,11.35
2022-12-09T13:03:54.514Z,11.28
2022-12-09T13:06:30.179Z,11.34
2022-12-09T13:09:03.804Z,11.62
2022-12-09T13:11:39.561Z,11.33
2022-12-09T13:14:13.863Z,11.51
2022-12-09T13:16:43.340Z,11.33
2022-12-09T13:19:17.359Z,11.34
2022-12-09T13:21:46.158Z,11.43
2022-12-09T13:24:27.047Z,11.30
2022-12-09T13:27:01.765Z,11.55
2022-12-09T13:29:39.009Z,11.48
2022-12-09T13:32:23.607Z,11.40
2022-12-09T13:34:55.130Z,11.31
2022-12-09T13:37:34.230Z,11.35
2022-12-09T13:40:06.540Z,11.18
2022-12-09T13:42:57.284Z,11.31
2022-12-09T13:45:48.252Z,11.33
2022-12-09T13:48:48.087Z,11.04
2022-12-09T13:51:17.690Z,11.44
2022-12-09T13:53:50.577Z,11.10
2022-12-09T13:56:27.842Z,11.55
2022-12-09T13:59:32.986Z,11.58
2022-12-09T14:02:03.307Z,11.25
2022-12-09T14:04:35.099Z,11.64
2022-12-09T14:07:10.714Z,11.47
2022-12-09T14:09:48.652Z,11.40
2022-12-09T14:12:56.077Z,11.10
2022-12-09T14:15:41.943Z,11.52
2022-12-09T14:18:30.512Z,11.37
2022-12-09T14:21:23.581Z,11.54
2022-12-09T14:24:28.765Z,11.50
2022-12-09T14:27:15.385Z,11.58
2022-12-09T14:29:51.073Z,11.52
2022-12-09T14:32:25.081Z,11.39
2022-12-09T14:35:22.550Z,11.15
2022-12-09T14:38:10.128Z,11.51
2022-12-09T14:40:54.012Z,11.68
2022-12-09T14:43:41.954Z,11.68
2022-12-09T14:46:24.731Z,11.31
2022-12-09T14:48:57.835Z,11.74
2022-12-09T14:51:31.318Z,11.35
2022-12-09T14:54:02.763Z,11.67
2022-12-09T14:56:33.000Z,11.58
2022-12-09T14:59:04.806Z,11.40
2022-12-09T15:04:34.773Z,11.43
2022-12-09T15:07:16.635Z,11.44
2022-12-09T15:09:52.870Z,11.38
2022-12-09T15:12:23.979Z,10.88
2022-12-09T15:14:59.035Z,11.25
2022-12-09T15:17:30.887Z,11.04
2022-12-09T15:20:01.533Z,11.18
2022-12-09T15:22:32.503Z,11.15
2022-12-09T15:25:02.463Z,10.89
2022-12-09T15:27:31.526Z,10.74
2022-12-09T15:29:59.550Z,11.12
2022-12-09T15:32:30.171Z,10.79
2022-12-09T15:35:18.519Z,10.97
2022-12-09T15:37:47.579Z,10.95
2022-12-09T15:40:20.256Z,11.03
2022-12-09T15:42:53.414Z,11.01
2022-12-09T15:45:24.338Z,10.98
2022-12-09T15:47:55.906Z,10.93
2022-12-09T15:50:28.962Z,10.76
2022-12-09T15:53:01.799Z,10.84
2022-12-09T15:55:32.482Z,9.77
2022-12-09T15:58:04.234Z,10.70
2022-12-09T16:00:37.747Z,10.60
2022-12-09T16:03:07.638Z,10.76
2022-12-09T16:05:41.957Z,10.53
2022-12-09T16:08:11.587Z,10.60
2022-12-09T16:10:47.431Z,10.43
2022-12-09T16:13:17.441Z,10.61
2022-12-09T16:15:52.610Z,10.59
2022-12-09T16:18:24.430Z,10.48
2022-12-09T16:21:03.507Z,10.50
2022-12-09T16:23:31.357Z,10.34
2022-12-09T16:26:06.983Z,10.53
2022-12-09T16:28:35.925Z,10.47
2022-12-09T16:31:16.674Z,10.33
2022-12-09T16:33:49.334Z,10.30
2022-12-09T16:36:22.764Z,10.48
2022-12-09T16:39:35.465Z,10.47
2022-12-09T16:42:03.497Z,10.42
2022-12-09T16:44:36.473Z,10.19
2022-12-09T16:47:11.595Z,10.17
2022-12-09T16:49:40.453Z,10.11
2022-12-09T16:52:15.047Z,10.31
2022-12-09T16:54:44.693Z,10.37
2022-12-09T16:57:14.540Z,10.30
2022-12-09T16:59:42.971Z,10.28
2022-12-09T17:02:25.108Z,10.38
2022-12-09T17:04:53.530Z,10.20
2022-12-09T17:07:22.824Z,10.19
2022-12-09T17:09:50.650Z,10.18
2022-12-09T17:12:18.585Z,10.01
2022-12-09T17:14:46.438Z,9.65
2022-12-09T17:17:14.399Z,9.91
2022-12-09T17:19:42.983Z,9.99
2022-12-09T17:22:11.179Z,9.89
2022-12-09T17:24:40.773Z,9.84
2022-12-09T17:27:08.633Z,9.75
2022-12-09T17:29:37.273Z,9.26
2022-12-09T17:32:05.548Z,9.64
2022-12-09T17:34:33.523Z,9.56
2022-12-09T17:37:01.586Z,9.57
2022-12-09T17:39:29.436Z,9.53
2022-12-09T17:41:58.751Z,9.41
2022-12-09T17:44:26.778Z,9.45
2022-12-09T17:46:54.650Z,9.37
2022-12-09T17:49:22.865Z,9.17
2022-12-09T17:51:50.752Z,9.01
2022-12-09T17:54:18.609Z,9.14
2022-12-09T17:56:47.214Z,9.19
2022-12-09T17:59:18.115Z,9.20
2022-12-09T18:01:47.133Z,9.05
2022-12-09T18:04:16.265Z,9.01
2022-12-09T18:06:46.212Z,9.14
2022-12-09T18:09:15.855Z,8.85
2022-12-09T18:11:44.400Z,8.90
2022-12-09T18:14:12.286Z,9.01
2022-12-09T18:16:41.718Z,8.88
2022-12-09T18:19:15.262Z,9.02
2022-12-09T18:21:43.396Z,8.61
2022-12-09T18:24:11.414Z,8.69
2022-12-09T18:26:42.043Z,8.94
2022-12-09T18:29:10.547Z,8.92
2022-12-09T18:31:38.694Z,8.84
2022-12-09T18:34:08.306Z,8.54
2022-12-09T18:36:36.225Z,8.42
2022-12-09T18:39:04.547Z,8.79
2022-12-09T18:41:33.101Z,8.27
2022-12-09T18:44:05.638Z,8.74
2022-12-09T18:46:38.045Z,8.75
2022-12-09T18:49:09.919Z,8.75
2022-12-09T18:51:39.087Z,8.72
2022-12-09T18:54:07.606Z,8.62
2022-12-09T18:56:36.449Z,8.60
2022-12-09T18:59:07.560Z,8.63
2022-12-09T19:01:39.697Z,8.64
2022-12-09T19:04:13.648Z,8.63
2022-12-09T19:06:43.658Z,8.56
2022-12-09T19:09:14.173Z,8.27
2022-12-09T19:11:43.822Z,7.42
2022-12-09T19:14:14.080Z,8.31
2022-12-09T19:16:42.461Z,8.47
2022-12-09T19:19:14.303Z,8.49
2022-12-09T19:21:42.653Z,8.49
2022-12-09T19:24:14.782Z,8.52
2022-12-09T19:26:43.880Z,8.46
2022-12-09T19:29:12.688Z,8.50
2022-12-09T19:31:42.360Z,8.52
2022-12-09T19:34:14.970Z,8.53
2022-12-09T19:36:43.599Z,8.53
2022-12-09T19:39:13.722Z,8.53
2022-12-09T19:41:42.329Z,8.37
2022-12-09T19:44:15.413Z,8.45
2022-12-09T19:46:46.837Z,8.44
2022-12-09T19:49:19.196Z,8.45
2022-12-09T19:51:48.119Z,8.42
2022-12-09T19:54:16.569Z,7.26
2022-12-09T19:56:45.227Z,8.54
2022-12-09T19:59:13.754Z,8.82
2022-12-09T20:01:44.294Z,9.07
2022-12-09T20:04:47.143Z,9.23
2022-12-09T20:07:07.903Z,8.34
2022-12-09T20:09:37.144Z,8.63
2022-12-09T20:12:06.088Z,8.52
2022-12-09T20:14:34.056Z,8.14
2022-12-09T20:17:01.932Z,8.38
2022-12-09T20:19:32.557Z,7.93
2022-12-09T20:22:00.423Z,8.28
2022-12-09T20:24:30.458Z,8.35
2022-12-09T20:26:58.445Z,8.44
2022-12-09T20:29:26.347Z,8.19
2022-12-09T20:31:54.438Z,8.26
2022-12-09T20:34:22.338Z,8.36
2022-12-09T20:36:50.172Z,8.23
2022-12-09T20:39:21.402Z,8.63
2022-12-09T20:41:50.694Z,8.37
2022-12-09T20:44:21.110Z,8.04
2022-12-09T20:46:51.045Z,8.26
2022-12-09T20:49:25.429Z,7.57
2022-12-09T20:51:54.072Z,8.01
2022-12-09T20:54:22.001Z,8.20
2022-12-09T20:56:51.513Z,8.19
2022-12-09T20:59:19.444Z,8.04
2022-12-09T21:01:47.626Z,8.25
2022-12-09T21:04:16.249Z,8.25
2022-12-09T21:06:44.848Z,8.22
2022-12-09T21:09:17.533Z,7.73
2022-12-09T21:11:46.182Z,8.21
2022-12-09T21:14:18.196Z,8.23
2022-12-09T21:16:47.014Z,8.24
2022-12-09T21:19:16.891Z,8.10
2022-12-09T21:21:46.884Z,8.28
2022-12-09T21:24:16.150Z,8.16
2022-12-09T21:26:46.350Z,8.26
2022-12-09T21:29:16.170Z,8.18
2022-12-09T21:31:45.723Z,8.09
2022-12-09T21:34:13.653Z,8.32
2022-12-09T21:36:43.588Z,8.24
2022-12-09T21:39:13.151Z,8.33
2022-12-09T21:41:41.898Z,8.18
2022-12-09T21:44:14.277Z,7.97
2022-12-09T21:46:45.086Z,8.00
2022-12-09T21:49:13.029Z,8.15
2022-12-09T21:51:40.919Z,8.34
2022-12-09T21:54:08.785Z,8.36
2022-12-09T21:56:37.030Z,8.40
2022-12-09T21:59:07.339Z,8.37
2022-12-09T22:01:37.241Z,8.35
2022-12-09T22:04:08.220Z,8.41
2022-12-09T22:06:36.378Z,8.48
2022-12-09T22:09:06.057Z,8.31
2022-12-09T22:11:36.224Z,8.47
2022-12-09T22:14:05.769Z,8.40
2022-12-09T22:16:36.227Z,8.54
2022-12-09T22:19:08.189Z,8.12
2022-12-09T22:21:36.723Z,8.62
2022-12-09T22:24:06.697Z,8.60
2022-12-09T22:26:34.975Z,8.65
2022-12-09T22:29:04.690Z,8.65
2022-12-09T22:31:35.259Z,8.65
2022-12-09T22:34:05.819Z,8.68
2022-12-09T22:36:36.962Z,8.69
2022-12-09T22:39:06.855Z,8.69
2022-12-09T22:41:35.160Z,8.64
2022-12-09T22:44:03.329Z,8.69
2022-12-09T22:46:33.171Z,8.70
2022-12-09T22:49:03.532Z,8.59
2022-12-09T22:51:35.145Z,8.16
2022-12-09T22:54:05.723Z,8.43
2022-12-09T22:56:34.104Z,8.73
2022-12-09T22:59:02.140Z,8.62
2022-12-09T23:01:32.888Z,8.77
2022-12-09T23:04:01.529Z,8.58
2022-12-09T23:06:30.940Z,8.66
2022-12-09T23:09:00.183Z,8.35
2022-12-09T23:11:29.704Z,8.41
2022-12-09T23:13:59.537Z,8.61
2022-12-09T23:16:28.102Z,8.47
2022-12-09T23:19:00.050Z,8.43
2022-12-09T23:21:29.739Z,8.00
2022-12-09T23:24:01.200Z,8.24
2022-12-09T23:26:31.840Z,8.58
2022-12-09T23:29:01.389Z,8.46
2022-12-09T23:31:32.625Z,8.60
2022-12-09T23:34:04.063Z,8.67
2022-12-09T23:36:34.042Z,8.71
2022-12-09T23:39:05.171Z,8.68
2022-12-09T23:41:33.016Z,8.64
2022-12-09T23:44:00.828Z,8.73
2022-12-09T23:46:31.435Z,8.65
2022-12-09T23:48:59.406Z,8.81
2022-12-09T23:51:29.375Z,8.51
2022-12-09T23:53:59.707Z,8.78
2022-12-09T23:56:31.269Z,8.77
2022-12-09T23:59:00.882Z,8.65
